createdAt,value
2023-02-17T00:01:38.058Z,33.8
2023-02-17T00:07:43.641Z,33.9
2023-02-17T00:13:49.432Z,33.8
2023-02-17T00:19:55.193Z,33.9
2023-02-17T00:26:00.656Z,33.8
2023-02-17T00:32:06.772Z,33.9
2023-02-17T00:38:12.393Z,33.9
2023-02-17T00:44:17.768Z,33.9
2023-02-17T00:50:22.835Z,33.9
2023-02-17T00:56:28.213Z,33.9
2023-02-17T01:02:33.799Z,33.9
2023-02-17T01:08:39.765Z,33.9
2023-02-17T01:14:45.548Z,33.9
2023-02-17T01:20:50.999Z,33.9
2023-02-17T01:26:56.610Z,33.9
2023-02-17T01:33:02.075Z,33.9
2023-02-17T01:39:07.208Z,33.9
2023-02-17T01:45:12.784Z,33.9
2023-02-17T01:51:18.369Z,33.9
2023-02-17T01:57:24.132Z,33.9
2023-02-17T02:03:30.739Z,33.9
2023-02-17T02:09:36.300Z,34
2023-02-17T02:15:41.908Z,34
2023-02-17T02:21:47.860Z,34
2023-02-17T02:27:52.918Z,34
2023-02-17T02:33:58.261Z,34
2023-02-17T02:40:03.544Z,34
2023-02-17T02:46:10.089Z,34
2023-02-17T02:52:16.126Z,34.1
2023-02-17T02:58:21.920Z,34.1
2023-02-17T03:04:27.263Z,34.1
2023-02-17T03:10:32.851Z,34.2
2023-02-17T03:16:38.520Z,34.2
2023-02-17T03:22:44.398Z,34.2
2023-02-17T03:28:49.369Z,34.3
2023-02-17T03:34:54.804Z,34.3
2023-02-17T03:40:59.894Z,34.2
2023-02-17T03:47:05.267Z,34.3
2023-02-17T03:53:10.615Z,34.3
2023-02-17T03:59:16.394Z,34.4
2023-02-17T04:05:21.978Z,34.4
2023-02-17T04:11:27.961Z,34.3
2023-02-17T04:17:33.381Z,34.4
2023-02-17T04:23:39.129Z,34.5
2023-02-17T04:29:44.722Z,34.4
2023-02-17T04:35:50.295Z,34.4
2023-02-17T04:41:55.391Z,34.5
2023-02-17T04:48:00.899Z,34.6
2023-02-17T04:54:06.319Z,34.4
2023-02-17T05:00:11.715Z,34
2023-02-17T05:06:17.109Z,34
2023-02-17T05:12:22.834Z,33.8
2023-02-17T05:18:28.298Z,33.8
2023-02-17T05:24:33.977Z,33.6
2023-02-17T05:30:39.216Z,33.6
2023-02-17T05:36:44.619Z,33.6
2023-02-17T05:42:50.268Z,33.6
2023-02-17T05:48:55.647Z,33.7
2023-02-17T05:55:00.872Z,33.7
2023-02-17T06:01:06.065Z,33.8
2023-02-17T06:07:11.348Z,33.8
2023-02-17T06:13:16.923Z,33.8
2023-02-17T06:19:22.991Z,33.9
2023-02-17T06:25:28.484Z,33.9
2023-02-17T06:31:34.188Z,33.8
2023-02-17T06:37:39.674Z,33.8
2023-02-17T06:43:45.035Z,33.7
2023-02-17T06:49:50.550Z,33.8
2023-02-17T06:55:56.327Z,33.8
2023-02-17T07:02:05.119Z,33.8
2023-02-17T07:08:10.556Z,33.8
2023-02-17T07:14:16.537Z,33.8
2023-02-17T07:20:21.898Z,33.8
2023-02-17T07:26:27.475Z,33.9
2023-02-17T07:32:33.235Z,33.9
2023-02-17T07:38:38.600Z,33.9
2023-02-17T07:44:44.001Z,33.9
2023-02-17T07:50:50.151Z,34
2023-02-17T07:56:55.588Z,34.1
2023-02-17T08:03:01.307Z,34.1
2023-02-17T08:09:06.974Z,34
2023-02-17T08:15:11.938Z,34.1
2023-02-17T08:21:17.443Z,34.1
2023-02-17T08:27:23.578Z,34.1
2023-02-17T08:33:29.182Z,34.1
2023-02-17T08:39:34.051Z,34
2023-02-17T08:45:39.515Z,34
2023-02-17T08:51:44.754Z,34.1
2023-02-17T08:57:50.111Z,34.2
2023-02-17T09:03:55.464Z,34.2
2023-02-17T09:10:00.884Z,34.2
2023-02-17T09:16:06.717Z,34.3
2023-02-17T09:22:29.727Z,34.3
2023-02-17T09:28:36.704Z,34.4
2023-02-17T09:34:41.997Z,34.4
2023-02-17T09:40:47.343Z,34.4
2023-02-17T09:47:04.183Z,34.5
2023-02-17T09:53:10.067Z,34.6
2023-02-17T09:59:15.850Z,34.7
2023-02-17T10:05:21.494Z,34.7
2023-02-17T10:11:27.279Z,34.6
2023-02-17T10:17:32.966Z,34.7
2023-02-17T10:23:38.559Z,34.7
2023-02-17T10:29:44.525Z,34.8
2023-02-17T10:35:49.785Z,34.9
2023-02-17T10:41:54.840Z,34.9
2023-02-17T10:48:00.622Z,34.9
2023-02-17T10:54:05.993Z,34.9
2023-02-17T11:00:11.002Z,35
2023-02-17T11:06:16.112Z,35
2023-02-17T11:12:21.521Z,34.9
2023-02-17T11:18:26.711Z,34.9
2023-02-17T11:24:32.023Z,35
2023-02-17T11:30:37.992Z,35
2023-02-17T11:36:43.359Z,35.1
2023-02-17T11:42:48.950Z,35.1
2023-02-17T11:48:54.498Z,35.1
2023-02-17T11:54:59.934Z,35.2
2023-02-17T12:01:05.313Z,35.1
2023-02-17T12:07:10.691Z,35.2
2023-02-17T12:13:16.253Z,35.2
2023-02-17T12:19:21.932Z,35.4
2023-02-17T12:25:27.835Z,35.2
2023-02-17T12:31:33.492Z,35.3
2023-02-17T12:37:39.554Z,35.3
2023-02-17T12:43:46.277Z,35.3
2023-02-17T12:49:53.494Z,35.4
2023-02-17T12:55:59.056Z,35.5
2023-02-17T13:02:04.664Z,35.5
2023-02-17T13:08:10.093Z,35.5
2023-02-17T13:14:15.618Z,35.6
2023-02-17T13:20:20.815Z,35.7
2023-02-17T13:26:26.274Z,35.6
2023-02-17T13:32:31.345Z,35.6
2023-02-17T13:38:36.904Z,35.7
2023-02-17T13:44:42.658Z,35.7
2023-02-17T13:50:48.642Z,35.7
2023-02-17T13:56:54.272Z,35.8
2023-02-17T14:02:59.726Z,35.8
2023-02-17T14:09:05.189Z,35.9
2023-02-17T14:15:10.467Z,35.9
2023-02-17T14:21:15.660Z,35.9
2023-02-17T14:27:21.812Z,35.9
2023-02-17T14:33:27.387Z,35.9
2023-02-17T14:39:32.556Z,35.9
2023-02-17T14:45:38.751Z,35.8
2023-02-17T14:51:44.324Z,35.8
2023-02-17T14:57:49.706Z,35.8
2023-02-17T15:03:55.860Z,35.8
2023-02-17T15:10:01.650Z,35.9
2023-02-17T15:16:07.855Z,35.9
2023-02-17T15:22:13.814Z,35.8
2023-02-17T15:28:19.600Z,35.9
2023-02-17T15:34:25.358Z,35.8
2023-02-17T15:40:31.141Z,35.9
2023-02-17T15:46:36.740Z,36
2023-02-17T15:52:42.742Z,36
2023-02-17T15:58:47.521Z,36.1
2023-02-17T16:04:52.236Z,36.1
2023-02-17T16:10:57.552Z,36.2
2023-02-17T16:17:03.141Z,36.2
2023-02-17T16:23:08.193Z,36.2
2023-02-17T16:29:13.880Z,36.2
2023-02-17T16:35:20.071Z,36.3
2023-02-17T16:41:25.627Z,36.3
2023-02-17T16:47:31.398Z,36.4
2023-02-17T16:53:37.263Z,36.4
2023-02-17T16:59:42.617Z,36.4
2023-02-17T17:05:47.982Z,36.4
2023-02-17T17:11:53.335Z,36.4
2023-02-17T17:17:59.125Z,36.4
2023-02-17T17:24:05.112Z,36.4
2023-02-17T17:30:10.740Z,36.4
2023-02-17T17:36:15.702Z,36.4
2023-02-17T17:42:20.431Z,36.4
2023-02-17T17:48:26.098Z,36.4
2023-02-17T17:54:31.684Z,36.5
2023-02-17T18:00:37.029Z,36.5
2023-02-17T18:06:42.070Z,36.5
2023-02-17T18:12:47.589Z,36.4
2023-02-17T18:18:53.346Z,36.5
2023-02-17T18:24:58.799Z,36.5
2023-02-17T18:31:04.513Z,36.5
2023-02-17T18:37:11.159Z,36.5
2023-02-17T18:43:16.528Z,36.6
2023-02-17T18:49:22.024Z,36.5
2023-02-17T18:55:27.395Z,36.6
2023-02-17T19:01:34.027Z,36.6
2023-02-17T19:07:39.538Z,36.6
2023-02-17T19:13:45.330Z,36.6
2023-02-17T19:19:51.312Z,36.7
2023-02-17T19:25:56.966Z,36.7
2023-02-17T19:32:02.830Z,36.7
2023-02-17T19:38:08.639Z,36.7
2023-02-17T19:44:14.012Z,36.8
2023-02-17T19:50:21.218Z,36.8
2023-02-17T19:56:26.791Z,36.8
2023-02-17T20:02:32.391Z,36.8
2023-02-17T20:08:37.940Z,36.9
2023-02-17T20:14:43.780Z,36.9
2023-02-17T20:20:49.138Z,36.9
2023-02-17T20:26:54.725Z,36.9
2023-02-17T20:33:00.484Z,36.9
2023-02-17T20:39:06.002Z,36.9
2023-02-17T20:45:11.355Z,37
2023-02-17T20:51:17.366Z,36.9
2023-02-17T20:57:23.129Z,36.9
2023-02-17T21:03:28.699Z,36.9
2023-02-17T21:09:34.532Z,37
2023-02-17T21:15:39.749Z,37
2023-02-17T21:21:45.267Z,37
2023-02-17T21:27:50.919Z,37
2023-02-17T21:33:56.161Z,37
2023-02-17T21:40:01.719Z,37
2023-02-17T21:46:07.886Z,37
2023-02-17T21:52:13.471Z,37
2023-02-17T21:58:18.636Z,37
2023-02-17T22:04:24.668Z,37
2023-02-17T22:10:30.006Z,37.1
2023-02-17T22:16:35.623Z,37.1
2023-02-17T22:22:41.739Z,37.2
2023-02-17T22:28:47.734Z,37.2
2023-02-17T22:34:53.505Z,37.2
2023-02-17T22:40:58.861Z,37.2
2023-02-17T22:47:04.641Z,37.3
2023-02-17T22:53:10.227Z,37.3
2023-02-17T22:59:15.587Z,37.4
2023-02-17T23:05:20.628Z,37.4
2023-02-17T23:11:25.783Z,37.4
2023-02-17T23:17:31.798Z,37.5
2023-02-17T23:23:36.911Z,37.4
2023-02-17T23:29:42.238Z,37.5
2023-02-17T23:35:47.998Z,37.5
2023-02-17T23:41:53.367Z,37.6
2023-02-17T23:47:58.715Z,37.5
2023-02-17T23:54:04.104Z,37.6
